Time;durP1;ratioP1;P1;durP2;ratioP2;P2;SDS_P1;SDS_P2;PMS_P1;PMS_P2;Temp;Humidity;BMP_temperature;BMP_pressure;BME280_temperature;BME280_humidity;BME280_pressure;Samples;Min_cycle;Max_cycle;Signal;HPM_P1;HPM_P2
2023/10/07 00:00:52;;;;;;;7.30;5.60;;;13.60;99.90;;;;;;5075819;28;20427;-71
2023/10/07 00:03:22;;;;;;;7.78;5.28;;;13.60;99.90;;;;;;5083824;28;20433;-70
2023/10/07 00:05:50;;;;;;;7.78;6.00;;;13.60;99.90;;;;;;5087765;28;20406;-71
2023/10/07 00:08:19;;;;;;;6.35;5.13;;;13.60;99.90;;;;;;5084548;28;20784;-70
2023/10/07 00:10:48;;;;;;;7.38;4.85;;;13.60;99.90;;;;;;5086112;28;20516;-72
2023/10/07 00:13:17;;;;;;;6.45;5.40;;;13.60;99.90;;;;;;5084448;28;20895;-71
2023/10/07 00:15:47;;;;;;;6.95;4.97;;;13.60;99.90;;;;;;5084058;28;20438;-71
2023/10/07 00:18:16;;;;;;;6.10;5.05;;;13.60;99.90;;;;;;5086700;28;20517;-71
2023/10/07 00:20:48;;;;;;;7.55;5.00;;;13.60;99.90;;;;;;5086511;28;20433;-71
2023/10/07 00:23:21;;;;;;;6.20;4.60;;;13.60;99.90;;;;;;5081926;28;20746;-71
2023/10/07 00:25:49;;;;;;;7.80;5.30;;;13.60;99.90;;;;;;5085155;28;20482;-72
2023/10/07 00:28:31;;;;;;;7.28;5.40;;;13.50;99.90;;;;;;5085853;28;20410;-71
2023/10/07 00:31:02;;;;;;;6.15;4.50;;;13.50;99.90;;;;;;5082310;28;21809;-71
2023/10/07 00:33:30;;;;;;;4.85;4.07;;;13.50;99.90;;;;;;5085616;28;20432;-72
2023/10/07 00:36:05;;;;;;;7.28;4.28;;;13.50;99.90;;;;;;5086244;28;20418;-72
2023/10/07 00:38:37;;;;;;;5.90;4.78;;;13.50;99.90;;;;;;5085303;28;20507;-72
2023/10/07 00:41:05;;;;;;;5.93;4.38;;;13.50;99.90;;;;;;5087437;28;20433;-71
2023/10/07 00:43:32;;;;;;;6.37;4.27;;;13.50;99.90;;;;;;5083260;28;20430;-71
2023/10/07 00:46:08;;;;;;;6.85;4.47;;;13.50;99.90;;;;;;5084382;28;20588;-71
2023/10/07 00:48:52;;;;;;;5.32;4.00;;;13.50;99.90;;;;;;5079565;28;20557;-71
2023/10/07 00:51:33;;;;;;;6.60;4.80;;;13.50;99.90;;;;;;5086677;28;20888;-72
2023/10/07 00:54:15;;;;;;;6.43;4.47;;;13.50;99.90;;;;;;5083136;28;20483;-69
2023/10/07 00:56:50;;;;;;;7.78;4.70;;;13.50;99.90;;;;;;5083547;28;20871;-73
2023/10/07 00:59:18;;;;;;;5.40;4.13;;;13.50;99.90;;;;;;5085430;28;20436;-72
2023/10/07 01:01:50;;;;;;;5.07;4.15;;;13.40;99.90;;;;;;5085046;28;20533;-70
2023/10/07 01:04:16;;;;;;;7.40;4.57;;;13.50;99.90;;;;;;5084216;28;20426;-72
2023/10/07 01:06:45;;;;;;;6.10;4.30;;;13.50;99.90;;;;;;5083863;28;20509;-70
2023/10/07 01:09:14;;;;;;;6.55;4.40;;;13.50;99.90;;;;;;5083225;28;20551;-71
2023/10/07 01:11:44;;;;;;;7.35;4.40;;;13.50;99.90;;;;;;5086265;28;20467;-71
2023/10/07 01:14:12;;;;;;;7.20;4.53;;;13.60;99.90;;;;;;5084836;28;20773;-72
2023/10/07 01:16:42;;;;;;;5.95;4.18;;;13.60;99.90;;;;;;5083564;28;20475;-71
2023/10/07 01:19:29;;;;;;;5.80;4.47;;;13.70;99.90;;;;;;5083710;28;20532;-72
2023/10/07 01:22:09;;;;;;;6.85;4.57;;;13.70;99.90;;;;;;5078786;28;20506;-71
2023/10/07 01:24:49;;;;;;;6.73;4.50;;;13.70;99.90;;;;;;5083697;28;20433;-71
2023/10/07 01:27:22;;;;;;;5.93;3.90;;;13.70;99.90;;;;;;5085523;28;20493;-71
2023/10/07 01:29:50;;;;;;;6.25;4.20;;;13.70;99.90;;;;;;5077186;28;20541;-72
2023/10/07 01:32:18;;;;;;;5.72;4.22;;;13.70;99.90;;;;;;5082928;28;20425;-70
2023/10/07 01:34:51;;;;;;;6.90;4.50;;;13.70;99.90;;;;;;5084620;28;20434;-70
2023/10/07 01:37:21;;;;;;;7.35;4.50;;;13.70;99.90;;;;;;5084762;28;20493;-72
2023/10/07 01:39:52;;;;;;;4.72;4.20;;;13.60;99.90;;;;;;5082443;28;20464;-70
2023/10/07 01:42:25;;;;;;;7.75;4.70;;;13.70;99.90;;;;;;5083273;28;20418;-70
2023/10/07 01:44:57;;;;;;;7.75;4.40;;;13.70;99.90;;;;;;5083086;28;20434;-70
2023/10/07 01:47:24;;;;;;;5.70;4.50;;;13.70;99.90;;;;;;5082169;28;20499;-70
2023/10/07 01:49:53;;;;;;;7.00;4.40;;;13.70;99.90;;;;;;5082967;28;20457;-69
2023/10/07 01:52:24;;;;;;;6.85;4.65;;;13.70;99.90;;;;;;5084603;28;20815;-70
2023/10/07 01:54:53;;;;;;;6.18;4.63;;;13.70;99.90;;;;;;5082263;28;20517;-70
2023/10/07 01:57:20;;;;;;;7.30;4.70;;;13.60;99.90;;;;;;5081528;28;20426;-70
2023/10/07 01:59:47;;;;;;;6.93;4.80;;;13.60;99.90;;;;;;5082513;28;20430;-70
2023/10/07 02:02:15;;;;;;;6.47;5.00;;;13.70;99.90;;;;;;5083294;28;20498;-70
2023/10/07 02:04:42;;;;;;;7.45;4.82;;;13.70;99.90;;;;;;5084117;28;20787;-71
2023/10/07 02:07:09;;;;;;;6.15;5.00;;;13.70;99.90;;;;;;5084422;28;20406;-70
2023/10/07 02:09:40;;;;;;;6.95;5.53;;;13.70;99.90;;;;;;5082493;28;20487;-71
2023/10/07 02:12:09;;;;;;;5.78;4.90;;;13.70;99.90;;;;;;5082654;28;20587;-71
2023/10/07 02:14:36;;;;;;;8.48;4.95;;;13.70;99.90;;;;;;5078268;28;20469;-69
2023/10/07 02:17:04;;;;;;;7.18;5.10;;;13.70;99.90;;;;;;5082277;28;20860;-70
2023/10/07 02:19:32;;;;;;;5.93;5.13;;;13.70;99.90;;;;;;5082645;28;20437;-70
2023/10/07 02:22:03;;;;;;;5.38;4.78;;;13.70;99.90;;;;;;5083860;28;20477;-71
2023/10/07 02:24:30;;;;;;;6.63;4.80;;;13.60;99.90;;;;;;5081950;28;20914;-70
2023/10/07 02:27:00;;;;;;;7.78;4.88;;;13.60;99.90;;;;;;5083131;28;20532;-70
2023/10/07 02:29:29;;;;;;;7.07;4.95;;;13.50;99.90;;;;;;5084440;28;20542;-69
2023/10/07 02:32:07;;;;;;;7.65;4.97;;;13.50;99.90;;;;;;5081165;28;20430;-70
2023/10/07 02:34:34;;;;;;;6.95;5.43;;;13.50;99.90;;;;;;5080916;28;20433;-69
2023/10/07 02:37:12;;;;;;;7.00;5.30;;;13.50;99.90;;;;;;5083561;28;20515;-70
2023/10/07 02:39:46;;;;;;;8.45;5.50;;;13.50;99.90;;;;;;5083067;28;20738;-70
2023/10/07 02:42:20;;;;;;;7.32;5.32;;;13.40;99.90;;;;;;5082802;28;20486;-72
2023/10/07 02:44:51;;;;;;;6.20;5.30;;;13.40;99.90;;;;;;5081879;28;20574;-70
2023/10/07 02:47:19;;;;;;;7.55;5.80;;;13.40;99.90;;;;;;5081357;28;20426;-71
2023/10/07 02:49:47;;;;;;;7.32;5.03;;;13.40;99.90;;;;;;5082664;28;20519;-70
2023/10/07 02:52:17;;;;;;;7.00;5.10;;;13.40;99.90;;;;;;5082888;28;20432;-70
2023/10/07 02:54:43;;;;;;;6.73;5.07;;;13.40;99.90;;;;;;5082097;28;20517;-71
2023/10/07 02:57:23;;;;;;;6.47;4.80;;;13.40;99.90;;;;;;5084460;28;20437;-72
2023/10/07 02:59:51;;;;;;;7.57;5.75;;;13.40;99.90;;;;;;5081379;28;20432;-71
2023/10/07 03:02:36;;;;;;;8.18;5.15;;;13.40;99.90;;;;;;5077298;28;20963;-70
2023/10/07 03:05:27;;;;;;;7.03;5.00;;;13.40;99.90;;;;;;5083434;28;20521;-70
2023/10/07 03:08:02;;;;;;;6.38;5.15;;;13.40;99.90;;;;;;5075982;28;20768;-70
2023/10/07 03:10:43;;;;;;;6.40;4.90;;;13.40;99.90;;;;;;5080819;28;20494;-71
2023/10/07 03:13:15;;;;;;;9.27;5.38;;;13.40;99.90;;;;;;5087391;22;20584;-66
2023/10/07 03:15:46;;;;;;;7.03;4.93;;;13.40;99.90;;;;;;5069410;28;20461;-66
2023/10/07 03:18:24;;;;;;;6.10;4.80;;;13.40;99.90;;;;;;5073243;28;20416;-67
2023/10/07 03:21:06;;;;;;;7.13;5.00;;;13.50;99.90;;;;;;5069152;28;20436;-66
2023/10/07 03:23:35;;;;;;;6.47;4.70;;;13.50;99.90;;;;;;5071205;28;20429;-67
2023/10/07 03:26:09;;;;;;;6.90;5.20;;;13.50;99.90;;;;;;5074708;28;20485;-67
2023/10/07 03:28:37;;;;;;;7.07;4.90;;;13.60;99.90;;;;;;5083859;28;20469;-66
2023/10/07 03:31:12;;;;;;;7.57;4.88;;;13.60;99.90;;;;;;5063631;28;20461;-66
2023/10/07 03:33:49;;;;;;;6.50;5.10;;;13.60;99.90;;;;;;5068554;28;20399;-67
2023/10/07 03:36:37;;;;;;;6.82;5.22;;;13.60;99.90;;;;;;5067063;28;20423;-68
2023/10/07 03:39:16;;;;;;;8.77;4.85;;;13.70;99.90;;;;;;5067613;28;20918;-67
2023/10/07 03:41:47;;;;;;;6.97;5.35;;;13.70;99.90;;;;;;5068119;28;20894;-67
2023/10/07 03:44:15;;;;;;;6.50;5.30;;;13.70;99.90;;;;;;5077303;28;20829;-68
2023/10/07 03:46:44;;;;;;;7.82;5.45;;;13.70;99.90;;;;;;5076873;28;20427;-67
2023/10/07 03:49:11;;;;;;;7.20;5.40;;;13.80;99.90;;;;;;5065599;28;20474;-67
2023/10/07 03:51:38;;;;;;;7.47;5.32;;;13.80;99.90;;;;;;5070363;28;20460;-67
2023/10/07 03:54:11;;;;;;;7.78;5.30;;;13.80;99.90;;;;;;5065502;28;20438;-67
2023/10/07 03:56:38;;;;;;;6.13;5.40;;;13.80;99.90;;;;;;5077375;28;20467;-68
2023/10/07 03:59:05;;;;;;;7.30;5.28;;;13.90;99.90;;;;;;5067807;28;20439;-68
2023/10/07 04:01:33;;;;;;;7.13;5.60;;;13.80;99.90;;;;;;5066632;28;20487;-67
2023/10/07 04:04:01;;;;;;;7.68;5.50;;;13.90;99.90;;;;;;5073897;28;20406;-66
2023/10/07 04:06:34;;;;;;;6.25;4.82;;;13.80;99.90;;;;;;5065803;28;20431;-67
2023/10/07 04:09:07;;;;;;;6.70;5.20;;;13.90;99.90;;;;;;5069275;28;20427;-67
2023/10/07 04:11:36;;;;;;;7.73;5.07;;;13.90;99.90;;;;;;5069478;28;20524;-67
2023/10/07 04:14:07;;;;;;;8.20;5.30;;;13.90;99.90;;;;;;5076669;28;20435;-67
2023/10/07 04:16:36;;;;;;;6.47;5.47;;;13.90;99.90;;;;;;5077264;28;20426;-66
2023/10/07 04:19:30;;;;;;;7.60;4.90;;;13.90;99.90;;;;;;5082558;28;20416;-67
2023/10/07 04:21:57;;;;;;;6.88;4.75;;;13.90;99.90;;;;;;5071835;28;20493;-67
2023/10/07 04:24:24;;;;;;;8.15;5.15;;;13.90;99.90;;;;;;5080262;28;20431;-66
2023/10/07 04:26:54;;;;;;;8.40;4.95;;;13.90;99.90;;;;;;5081587;28;20437;-67
2023/10/07 04:29:24;;;;;;;7.60;5.57;;;13.90;99.90;;;;;;5074723;28;20423;-67
2023/10/07 04:31:52;;;;;;;7.18;5.47;;;13.80;99.90;;;;;;5077246;28;20425;-66
2023/10/07 04:34:21;;;;;;;8.73;6.00;;;13.80;99.90;;;;;;5079004;28;20933;-67
2023/10/07 04:37:11;;;;;;;9.27;5.72;;;13.90;99.90;;;;;;5075300;28;20429;-67
2023/10/07 04:39:39;;;;;;;6.43;5.70;;;13.80;99.90;;;;;;5080830;28;20425;-68
2023/10/07 04:42:06;;;;;;;7.80;6.20;;;13.80;99.90;;;;;;5070771;28;20473;-66
2023/10/07 04:47:34;;;;;;;6.85;6.05;;;13.90;99.90;;;;;;5072740;28;20407;-67
2023/10/07 04:50:07;;;;;;;7.77;6.10;;;14.00;99.90;;;;;;5082176;28;20945;-68
2023/10/07 04:52:40;;;;;;;8.43;6.30;;;14.00;99.90;;;;;;5072328;28;20517;-67
2023/10/07 04:55:11;;;;;;;8.82;6.30;;;14.00;99.90;;;;;;5074564;28;20419;-68
2023/10/07 04:57:44;;;;;;;10.17;6.20;;;14.10;99.90;;;;;;5065744;28;20406;-66
2023/10/07 05:00:27;;;;;;;8.52;6.15;;;14.10;99.90;;;;;;5074093;28;20459;-67
2023/10/07 05:02:57;;;;;;;8.45;6.57;;;14.10;99.90;;;;;;5070655;28;20524;-69
2023/10/07 05:05:25;;;;;;;9.33;7.20;;;14.10;99.90;;;;;;5078700;28;20934;-66
2023/10/07 05:07:56;;;;;;;8.38;6.35;;;14.10;99.90;;;;;;5080061;28;20506;-67
2023/10/07 05:10:23;;;;;;;6.95;6.25;;;14.20;99.90;;;;;;5073665;28;20500;-66
2023/10/07 05:12:54;;;;;;;8.50;6.30;;;14.20;99.90;;;;;;5083236;28;20419;-68
2023/10/07 05:15:20;;;;;;;8.68;6.50;;;14.20;99.90;;;;;;5068849;28;20430;-67
2023/10/07 05:17:47;;;;;;;7.93;6.63;;;14.30;99.90;;;;;;5075439;28;20425;-66
2023/10/07 05:20:27;;;;;;;9.18;6.38;;;14.30;99.90;;;;;;5068629;28;20894;-66
2023/10/07 05:22:55;;;;;;;7.97;6.80;;;14.30;99.90;;;;;;5069211;28;20424;-66
2023/10/07 05:25:22;;;;;;;7.38;6.20;;;14.40;99.90;;;;;;5069767;28;20443;-65
2023/10/07 05:27:50;;;;;;;9.40;6.40;;;14.40;99.90;;;;;;5075118;28;20882;-66
2023/10/07 05:30:18;;;;;;;7.20;6.50;;;14.40;99.90;;;;;;5076502;28;20757;-66
2023/10/07 05:32:46;;;;;;;6.97;6.22;;;14.40;99.90;;;;;;5070454;28;20431;-67
2023/10/07 05:35:15;;;;;;;8.40;6.37;;;14.40;99.90;;;;;;5076830;28;21053;-66
2023/10/07 05:37:42;;;;;;;8.05;6.57;;;14.40;99.90;;;;;;5074305;28;20431;-68
2023/10/07 05:40:14;;;;;;;7.83;6.57;;;14.40;99.90;;;;;;5067895;28;20453;-65
2023/10/07 05:42:42;;;;;;;7.78;6.35;;;14.40;99.90;;;;;;5069526;28;20525;-68
2023/10/07 05:45:10;;;;;;;9.50;6.80;;;14.30;99.90;;;;;;5066162;28;20435;-67
2023/10/07 05:47:36;;;;;;;6.85;6.13;;;14.30;99.90;;;;;;5077042;28;20411;-68
2023/10/07 05:50:04;;;;;;;8.30;6.30;;;14.30;99.90;;;;;;5075398;28;20432;-68
2023/10/07 05:52:32;;;;;;;12.18;7.13;;;14.20;99.90;;;;;;5071664;28;20477;-68
2023/10/07 05:54:59;;;;;;;7.85;6.70;;;14.30;99.90;;;;;;5073433;28;20440;-68
2023/10/07 05:57:27;;;;;;;9.75;6.60;;;14.20;99.90;;;;;;5077813;28;20435;-68
2023/10/07 05:59:54;;;;;;;7.38;6.68;;;14.20;99.90;;;;;;5082165;28;20431;-68
2023/10/07 06:02:23;;;;;;;8.70;6.97;;;14.20;99.90;;;;;;5074813;28;20493;-68
2023/10/07 06:04:49;;;;;;;10.20;6.95;;;14.20;99.90;;;;;;5073754;28;20438;-68
2023/10/07 06:07:20;;;;;;;9.20;7.35;;;14.20;99.90;;;;;;5072249;28;20415;-68
2023/10/07 06:09:47;;;;;;;7.07;6.38;;;14.10;99.90;;;;;;5064902;28;20577;-68
2023/10/07 06:12:15;;;;;;;7.72;6.00;;;14.10;99.90;;;;;;5074099;28;20421;-66
2023/10/07 06:14:43;;;;;;;7.87;6.40;;;14.10;99.90;;;;;;5070814;28;20439;-66
2023/10/07 06:17:11;;;;;;;7.85;6.45;;;14.10;99.90;;;;;;5081936;28;20448;-67
2023/10/07 06:19:40;;;;;;;7.55;6.80;;;14.20;99.90;;;;;;5070308;28;20437;-68
2023/10/07 06:22:11;;;;;;;7.72;6.38;;;14.20;99.90;;;;;;5073552;28;20841;-67
2023/10/07 06:24:41;;;;;;;7.05;5.93;;;14.20;99.90;;;;;;5067854;28;20845;-68
2023/10/07 06:27:11;;;;;;;7.72;5.97;;;14.10;99.90;;;;;;5075572;28;20918;-67
2023/10/07 06:29:43;;;;;;;8.30;6.18;;;14.20;99.90;;;;;;5067986;28;20820;-68
2023/10/07 06:32:22;;;;;;;6.30;5.70;;;14.20;99.90;;;;;;5075372;28;20428;-67
2023/10/07 06:34:51;;;;;;;8.45;6.18;;;14.20;99.90;;;;;;5069751;28;20437;-67
2023/10/07 06:37:21;;;;;;;7.57;5.77;;;14.20;99.90;;;;;;5078466;28;20474;-67
2023/10/07 06:39:48;;;;;;;7.27;5.70;;;14.30;99.90;;;;;;5079880;28;20466;-67
2023/10/07 06:42:17;;;;;;;8.10;6.18;;;14.30;99.90;;;;;;5070443;28;20425;-67
2023/10/07 06:44:44;;;;;;;6.70;5.80;;;14.40;99.90;;;;;;5071297;28;20518;-67
2023/10/07 06:47:12;;;;;;;6.90;5.72;;;14.40;99.90;;;;;;5074093;28;20586;-67
2023/10/07 06:49:39;;;;;;;7.17;5.77;;;14.40;99.90;;;;;;5079214;28;20428;-67
2023/10/07 06:52:06;;;;;;;6.25;5.60;;;14.50;99.90;;;;;;5072669;28;20793;-67
2023/10/07 06:54:33;;;;;;;10.02;5.90;;;14.50;99.90;;;;;;5076205;28;20431;-66
2023/10/07 06:57:01;;;;;;;6.90;5.80;;;14.50;99.90;;;;;;5068067;28;20833;-67
2023/10/07 06:59:28;;;;;;;8.57;5.45;;;14.50;99.90;;;;;;5082466;28;20441;-67
2023/10/07 07:01:55;;;;;;;6.30;5.20;;;14.50;99.90;;;;;;5070921;28;20791;-66
2023/10/07 07:04:24;;;;;;;7.70;5.80;;;14.60;99.90;;;;;;5066497;28;20480;-67
2023/10/07 07:07:11;;;;;;;8.98;5.50;;;14.70;99.90;;;;;;5080916;28;20435;-67
2023/10/07 07:09:51;;;;;;;9.40;6.10;;;14.70;99.90;;;;;;5069568;28;20431;-67
2023/10/07 07:12:21;;;;;;;7.88;5.43;;;14.80;99.90;;;;;;5069452;28;20438;-67
2023/10/07 07:14:51;;;;;;;6.43;5.20;;;14.80;99.90;;;;;;5077320;28;20485;-68
2023/10/07 07:17:35;;;;;;;6.40;5.00;;;14.90;99.90;;;;;;5065878;28;20860;-66
2023/10/07 07:22:49;;;;;;;7.53;4.95;;;15.00;99.90;;;;;;5065535;28;20787;-66
2023/10/07 07:25:19;;;;;;;6.33;5.03;;;15.00;99.90;;;;;;5065645;28;20942;-66
2023/10/07 07:27:48;;;;;;;7.25;5.55;;;15.10;99.90;;;;;;5061785;28;20415;-67
2023/10/07 07:30:19;;;;;;;6.95;5.90;;;15.20;99.90;;;;;;5068052;28;20859;-68
2023/10/07 07:32:47;;;;;;;7.38;5.40;;;15.30;99.90;;;;;;5070924;28;20455;-66
2023/10/07 07:35:22;;;;;;;6.50;5.38;;;15.40;99.90;;;;;;5065919;28;20522;-67
2023/10/07 07:37:49;;;;;;;7.97;5.53;;;15.50;99.90;;;;;;5073022;28;20552;-66
2023/10/07 07:40:35;;;;;;;7.13;5.37;;;15.50;99.90;;;;;;5071515;28;20770;-65
2023/10/07 07:43:07;;;;;;;6.90;5.40;;;15.60;99.90;;;;;;5059834;28;20925;-67
2023/10/07 07:45:35;;;;;;;5.60;4.63;;;15.70;99.90;;;;;;5068531;28;20533;-67
2023/10/07 07:48:06;;;;;;;5.88;5.28;;;15.70;99.90;;;;;;5076431;28;20432;-67
2023/10/07 07:50:35;;;;;;;7.03;4.90;;;15.80;99.90;;;;;;5068084;28;20420;-67
2023/10/07 07:53:06;;;;;;;6.40;5.32;;;15.80;99.90;;;;;;5075184;28;20438;-67
2023/10/07 07:55:34;;;;;;;7.90;5.15;;;15.80;99.90;;;;;;5072808;28;20819;-67
2023/10/07 07:58:02;;;;;;;6.93;5.40;;;15.80;99.90;;;;;;5072314;28;20450;-67
2023/10/07 08:00:31;;;;;;;8.35;5.28;;;15.80;99.90;;;;;;5067842;28;20506;-67
2023/10/07 08:02:58;;;;;;;7.55;5.00;;;15.80;99.90;;;;;;5062914;28;20473;-67
2023/10/07 08:05:28;;;;;;;8.90;5.05;;;15.90;99.90;;;;;;5070314;28;20427;-67
2023/10/07 08:07:58;;;;;;;5.70;5.10;;;15.90;99.90;;;;;;5073682;28;20442;-67
2023/10/07 08:10:28;;;;;;;6.72;5.15;;;16.00;99.90;;;;;;5078931;28;20439;-67
2023/10/07 08:12:58;;;;;;;7.80;5.00;;;16.00;99.90;;;;;;5070807;28;20437;-67
2023/10/07 08:15:25;;;;;;;7.65;5.20;;;16.10;99.90;;;;;;5069198;28;20435;-67
2023/10/07 08:17:52;;;;;;;7.20;5.13;;;16.10;99.90;;;;;;5073180;28;20431;-67
2023/10/07 08:20:26;;;;;;;7.07;4.82;;;16.10;99.90;;;;;;5074074;28;20431;-67
2023/10/07 08:22:54;;;;;;;5.10;4.57;;;16.20;99.90;;;;;;5070712;28;20993;-67
2023/10/07 08:25:37;;;;;;;6.80;4.70;;;16.20;99.90;;;;;;5078230;28;20467;-67
2023/10/07 08:28:18;;;;;;;5.50;4.60;;;16.30;99.90;;;;;;5077099;28;20453;-67
2023/10/07 08:30:46;;;;;;;5.30;4.38;;;16.40;99.90;;;;;;5074322;28;20984;-67
2023/10/07 08:33:14;;;;;;;6.15;4.60;;;16.50;99.90;;;;;;5069936;28;20794;-67
2023/10/07 08:35:43;;;;;;;6.05;4.28;;;16.50;99.90;;;;;;5081561;28;20779;-67
2023/10/07 08:38:21;;;;;;;5.78;4.30;;;16.50;99.90;;;;;;5072907;28;20470;-66
2023/10/07 08:41:04;;;;;;;7.50;4.80;;;16.60;99.90;;;;;;5082329;28;20423;-67
2023/10/07 08:43:37;;;;;;;7.25;4.68;;;16.60;99.90;;;;;;5068633;28;20435;-66
2023/10/07 08:46:08;;;;;;;5.70;4.17;;;16.70;99.90;;;;;;5070167;28;20673;-67
2023/10/07 08:48:38;;;;;;;5.65;3.50;;;16.80;99.90;;;;;;5072315;28;20938;-67
2023/10/07 08:51:10;;;;;;;6.18;3.58;;;16.80;99.90;;;;;;5074831;28;20458;-66
2023/10/07 08:53:38;;;;;;;6.63;3.45;;;17.00;99.90;;;;;;5075455;28;20431;-66
2023/10/07 08:56:09;;;;;;;5.38;3.70;;;17.10;99.70;;;;;;5068324;28;20500;-69
2023/10/07 08:58:40;;;;;;;4.50;3.10;;;17.30;99.80;;;;;;5074048;28;20798;-69
2023/10/07 09:01:16;;;;;;;5.70;3.30;;;17.50;99.00;;;;;;5071444;28;20452;-69
2023/10/07 09:03:47;;;;;;;5.57;3.78;;;17.70;98.30;;;;;;5079576;28;20410;-69
2023/10/07 09:06:14;;;;;;;4.32;3.10;;;17.90;97.60;;;;;;5068683;28;20427;-69
2023/10/07 09:08:43;;;;;;;4.97;3.10;;;18.00;97.70;;;;;;5074242;28;20518;-68
2023/10/07 09:11:14;;;;;;;4.68;3.20;;;18.20;96.60;;;;;;5071557;28;20484;-67
2023/10/07 09:13:40;;;;;;;4.40;3.20;;;18.20;96.30;;;;;;5073427;28;20431;-67
2023/10/07 09:16:08;;;;;;;4.03;2.90;;;18.20;96.40;;;;;;5068286;28;20519;-67
2023/10/07 09:18:39;;;;;;;5.57;3.30;;;18.20;95.80;;;;;;5072985;28;20479;-67
2023/10/07 09:21:09;;;;;;;4.75;2.95;;;18.20;96.10;;;;;;5067346;28;20431;-68
2023/10/07 09:23:43;;;;;;;6.07;3.00;;;18.10;96.30;;;;;;5081184;28;20463;-68
2023/10/07 09:26:22;;;;;;;6.00;2.90;;;18.20;96.00;;;;;;5085988;28;20406;-68
2023/10/07 09:28:58;;;;;;;5.40;2.90;;;18.30;95.60;;;;;;5066358;28;20788;-68
2023/10/07 09:31:26;;;;;;;4.87;3.00;;;18.50;95.70;;;;;;5066037;28;20420;-68
2023/10/07 09:33:55;;;;;;;4.57;2.85;;;18.70;95.60;;;;;;5074841;28;20432;-68
2023/10/07 09:36:33;;;;;;;3.42;2.60;;;19.00;94.50;;;;;;5069497;28;20546;-68
2023/10/07 09:39:31;;;;;;;4.25;2.80;;;19.30;93.40;;;;;;5068833;28;20432;-67
2023/10/07 09:42:04;;;;;;;4.00;2.50;;;19.60;91.90;;;;;;5061721;28;20949;-69
2023/10/07 09:44:31;;;;;;;4.22;3.10;;;19.80;90.90;;;;;;5068325;28;20431;-68
2023/10/07 09:47:03;;;;;;;5.03;2.83;;;19.80;90.70;;;;;;5068775;28;20419;-68
2023/10/07 09:49:32;;;;;;;4.63;3.10;;;19.70;90.60;;;;;;5068045;28;20912;-67
2023/10/07 09:52:16;;;;;;;4.40;2.90;;;19.80;90.20;;;;;;5070689;28;20466;-64
2023/10/07 09:55:18;;;;;;;3.88;2.88;;;19.80;90.30;;;;;;5070236;28;20506;-65
2023/10/07 09:58:06;;;;;;;3.97;2.90;;;19.80;90.30;;;;;;5062020;28;20439;-64
2023/10/07 10:00:39;;;;;;;4.28;2.80;;;19.90;90.50;;;;;;5078956;28;20791;-63
2023/10/07 10:03:34;;;;;;;4.65;2.67;;;20.00;89.40;;;;;;5076439;28;20505;-63
2023/10/07 10:06:16;;;;;;;4.50;2.40;;;20.20;89.80;;;;;;5067317;28;20459;-65
2023/10/07 10:08:57;;;;;;;5.43;2.70;;;20.50;87.90;;;;;;5064296;28;20522;-64
2023/10/07 10:11:31;;;;;;;4.45;2.80;;;20.70;86.20;;;;;;5067417;28;20427;-63
2023/10/07 10:14:18;;;;;;;4.57;2.72;;;20.80;83.50;;;;;;5063433;28;20430;-63
2023/10/07 10:16:45;;;;;;;4.75;2.70;;;20.70;83.10;;;;;;5070315;28;20431;-63
2023/10/07 10:19:19;;;;;;;4.82;3.20;;;20.60;83.80;;;;;;5068102;28;20948;-63
2023/10/07 10:21:46;;;;;;;5.35;2.70;;;20.60;83.60;;;;;;5061468;28;20737;-63
2023/10/07 10:24:16;;;;;;;3.90;2.60;;;20.50;84.60;;;;;;5056190;28;20458;-63
2023/10/07 10:26:44;;;;;;;4.00;2.60;;;20.40;85.50;;;;;;5072423;28;20498;-63
2023/10/07 10:29:17;;;;;;;3.85;3.08;;;20.40;84.90;;;;;;5068481;28;20430;-63
2023/10/07 10:31:51;;;;;;;4.57;3.10;;;20.50;84.60;;;;;;5073424;28;20451;-63
2023/10/07 10:34:20;;;;;;;3.80;2.70;;;20.50;84.00;;;;;;5065843;28;20431;-63
2023/10/07 10:36:49;;;;;;;4.10;2.53;;;20.60;83.80;;;;;;5067199;28;20516;-63
2023/10/07 10:39:20;;;;;;;3.83;2.33;;;20.80;82.10;;;;;;5064080;28;20429;-63
2023/10/07 10:41:47;;;;;;;5.25;2.80;;;20.90;81.60;;;;;;5064354;28;20429;-64
2023/10/07 10:44:16;;;;;;;4.80;2.88;;;20.90;81.90;;;;;;5068370;28;20506;-64
2023/10/07 10:46:45;;;;;;;4.47;2.40;;;21.10;81.50;;;;;;5065826;28;20459;-67
2023/10/07 10:49:13;;;;;;;4.90;2.55;;;21.20;80.70;;;;;;5064331;28;20429;-68
2023/10/07 10:51:50;;;;;;;4.88;2.50;;;21.40;79.90;;;;;;5069383;28;20431;-67
2023/10/07 10:54:18;;;;;;;2.45;1.90;;;21.50;78.70;;;;;;5064993;28;20455;-67
2023/10/07 10:56:50;;;;;;;4.05;2.55;;;21.50;79.60;;;;;;5072745;28;20806;-67
2023/10/07 10:59:19;;;;;;;2.97;2.35;;;21.70;78.50;;;;;;5070279;28;20434;-67
2023/10/07 11:01:49;;;;;;;3.15;1.73;;;21.80;77.70;;;;;;5065638;28;20478;-68
2023/10/07 11:04:19;;;;;;;4.00;2.10;;;21.90;76.40;;;;;;5068787;28;20768;-68
2023/10/07 11:06:50;;;;;;;3.40;2.20;;;21.90;77.20;;;;;;5075670;28;20411;-67
2023/10/07 11:09:25;;;;;;;3.90;2.50;;;21.90;77.60;;;;;;5080082;28;20449;-67
2023/10/07 11:11:54;;;;;;;3.85;2.13;;;22.10;76.80;;;;;;5068395;28;20430;-67
2023/10/07 11:14:23;;;;;;;3.45;2.25;;;22.30;76.50;;;;;;5061376;28;20997;-68
2023/10/07 11:16:51;;;;;;;2.83;1.83;;;22.60;72.60;;;;;;5070367;28;20452;-67
2023/10/07 11:19:19;;;;;;;2.80;1.60;;;22.70;73.00;;;;;;5067947;28;20573;-68
2023/10/07 11:21:49;;;;;;;4.30;2.20;;;22.70;72.00;;;;;;5066325;28;20435;-68
2023/10/07 11:24:25;;;;;;;2.83;1.65;;;22.80;72.80;;;;;;5075710;28;20433;-69
2023/10/07 11:26:56;;;;;;;3.75;1.95;;;23.00;72.00;;;;;;5069528;28;20429;-68
2023/10/07 11:29:29;;;;;;;4.40;2.20;;;23.00;69.20;;;;;;5075834;28;20413;-68
2023/10/07 11:32:00;;;;;;;3.38;2.25;;;22.90;69.60;;;;;;5081260;28;20835;-68
2023/10/07 11:34:37;;;;;;;4.18;2.17;;;23.00;68.90;;;;;;5083243;28;20415;-68
2023/10/07 11:37:13;;;;;;;3.03;1.85;;;23.00;69.30;;;;;;5079560;28;20433;-68
2023/10/07 11:39:44;;;;;;;2.70;2.00;;;23.00;68.60;;;;;;5080796;28;20431;-68
2023/10/07 11:42:16;;;;;;;3.08;2.10;;;23.10;67.00;;;;;;5084440;28;20496;-69
2023/10/07 11:44:48;;;;;;;3.20;1.90;;;23.10;67.60;;;;;;5083594;28;20532;-68
2023/10/07 11:47:17;;;;;;;2.60;1.90;;;23.20;66.20;;;;;;5088749;28;20786;-67
2023/10/07 11:49:47;;;;;;;4.18;2.08;;;23.30;66.20;;;;;;5077081;28;20421;-68
2023/10/07 11:52:19;;;;;;;2.55;1.70;;;23.40;65.40;;;;;;5082871;28;21060;-68
2023/10/07 11:54:46;;;;;;;4.40;2.30;;;23.50;65.70;;;;;;5090626;28;20426;-68
2023/10/07 11:57:13;;;;;;;2.60;2.00;;;23.60;63.70;;;;;;5082970;28;20806;-68
2023/10/07 11:59:42;;;;;;;2.33;1.70;;;23.70;62.80;;;;;;5083798;28;20498;-69
2023/10/07 12:02:14;;;;;;;3.03;2.10;;;23.60;62.90;;;;;;5073705;28;20438;-68
2023/10/07 12:04:46;;;;;;;4.55;2.00;;;23.50;62.00;;;;;;5084031;28;20427;-68
2023/10/07 12:07:14;;;;;;;2.80;1.98;;;23.40;63.70;;;;;;5075489;28;20427;-67
2023/10/07 12:09:41;;;;;;;3.50;2.20;;;23.40;63.10;;;;;;5078317;28;20522;-68
2023/10/07 12:12:11;;;;;;;2.90;2.00;;;23.50;61.70;;;;;;5072388;28;20426;-69
2023/10/07 12:14:38;;;;;;;2.72;1.73;;;23.60;62.60;;;;;;5074770;28;20427;-69
2023/10/07 12:17:05;;;;;;;3.43;2.07;;;23.70;62.30;;;;;;5075417;28;20464;-70
2023/10/07 12:19:34;;;;;;;3.40;1.90;;;23.90;60.60;;;;;;5065430;28;20944;-68
2023/10/07 12:22:03;;;;;;;5.32;2.10;;;23.90;60.40;;;;;;5077884;28;20429;-69
2023/10/07 12:24:31;;;;;;;3.28;1.92;;;24.00;61.20;;;;;;5079493;28;20517;-69
2023/10/07 12:26:59;;;;;;;3.85;2.00;;;24.00;59.60;;;;;;5079410;28;20921;-69
2023/10/07 12:29:27;;;;;;;3.95;2.10;;;24.00;59.90;;;;;;5073235;28;20443;-68
2023/10/07 12:31:55;;;;;;;3.55;1.90;;;24.10;60.10;;;;;;5079334;28;20832;-67
2023/10/07 12:34:23;;;;;;;3.15;2.20;;;24.20;59.70;;;;;;5075490;28;20462;-68
2023/10/07 12:36:53;;;;;;;3.10;1.80;;;24.30;60.40;;;;;;5069320;28;20442;-67
2023/10/07 12:39:21;;;;;;;3.97;2.00;;;24.40;57.80;;;;;;5077705;28;20431;-67
2023/10/07 12:41:48;;;;;;;3.55;2.00;;;24.40;56.40;;;;;;5060599;28;20513;-70
2023/10/07 12:44:16;;;;;;;2.40;1.60;;;24.40;57.40;;;;;;5065987;28;20450;-68
2023/10/07 12:46:43;;;;;;;3.40;2.08;;;24.40;57.50;;;;;;5071873;28;20427;-69
2023/10/07 12:49:14;;;;;;;2.30;1.90;;;24.50;56.50;;;;;;5065614;28;20486;-67
2023/10/07 12:51:42;;;;;;;3.72;2.00;;;24.40;56.60;;;;;;5069479;28;20427;-69
2023/10/07 12:54:11;;;;;;;3.10;1.80;;;24.40;59.10;;;;;;5073571;28;20896;-69
2023/10/07 12:56:37;;;;;;;2.55;1.85;;;24.50;57.00;;;;;;5067871;28;20553;-68
2023/10/07 12:59:17;;;;;;;4.88;2.60;;;24.50;55.60;;;;;;5063460;28;20869;-68
2023/10/07 13:01:46;;;;;;;4.50;1.70;;;24.60;56.60;;;;;;5067548;28;20438;-66
2023/10/07 13:04:12;;;;;;;2.80;1.90;;;24.80;55.50;;;;;;5070067;28;20489;-67
2023/10/07 13:06:42;;;;;;;3.55;2.10;;;24.90;55.20;;;;;;5066951;28;20434;-67
2023/10/07 13:09:16;;;;;;;4.25;2.20;;;25.00;56.30;;;;;;5072268;28;20436;-67
2023/10/07 13:11:43;;;;;;;2.88;2.10;;;25.20;55.80;;;;;;5073827;28;20543;-67